Time;durP1;ratioP1;P1;durP2;ratioP2;P2;SDS_P1;SDS_P2;PMS_P1;PMS_P2;Temp;Humidity;BMP_temperature;BMP_pressure;BME280_temperature;BME280_humidity;BME280_pressure;Samples;Min_cycle;Max_cycle;Signal;HPM_P1;HPM_P2
2022/02/28 00:01:58;;;;;;;51.00;17.20;;;0.70;97.30;;;;;;5056938;28;20424;-81
2022/02/28 00:04:25;;;;;;;57.73;17.73;;;0.60;97.30;;;;;;5056233;28;20420;-80
2022/02/28 00:06:51;;;;;;;49.50;16.73;;;0.60;97.30;;;;;;5056138;28;20420;-80
2022/02/28 00:09:17;;;;;;;48.33;17.30;;;0.50;97.30;;;;;;5055383;28;20410;-80
2022/02/28 00:11:43;;;;;;;55.00;17.47;;;0.50;97.30;;;;;;5055828;28;20417;-80
2022/02/28 00:14:08;;;;;;;54.53;17.83;;;0.50;97.30;;;;;;5073015;28;20468;-81
2022/02/28 00:16:34;;;;;;;53.37;15.83;;;0.50;97.30;;;;;;5055109;28;20174;-80
2022/02/28 00:19:00;;;;;;;48.20;16.27;;;0.50;97.30;;;;;;5073986;28;20232;-80
2022/02/28 00:21:25;;;;;;;59.17;18.30;;;0.50;97.30;;;;;;5058612;28;20182;-80
2022/02/28 00:23:51;;;;;;;56.03;17.00;;;0.50;97.30;;;;;;5055768;28;20401;-80
2022/02/28 00:26:17;;;;;;;69.80;18.40;;;0.50;97.30;;;;;;5073380;28;20226;-80
2022/02/28 00:28:42;;;;;;;55.40;17.40;;;0.60;97.30;;;;;;5075959;28;20648;-80
2022/02/28 00:31:08;;;;;;;58.70;16.93;;;0.60;97.30;;;;;;5059948;28;20548;-81
2022/02/28 00:33:34;;;;;;;52.17;18.23;;;0.50;97.30;;;;;;5059584;28;20268;-80
2022/02/28 00:35:59;;;;;;;65.17;18.03;;;0.60;97.30;;;;;;5060254;28;20250;-80
2022/02/28 00:38:25;;;;;;;57.27;18.57;;;0.60;97.30;;;;;;5060570;28;20179;-80
2022/02/28 00:40:51;;;;;;;65.50;19.37;;;0.60;97.30;;;;;;5059977;28;20218;-81
2022/02/28 00:43:17;;;;;;;66.70;19.27;;;0.60;97.30;;;;;;5059708;28;20610;-80
2022/02/28 00:45:43;;;;;;;66.63;20.27;;;0.50;97.30;;;;;;5059919;28;21002;-81
2022/02/28 00:48:09;;;;;;;57.20;16.77;;;0.50;97.30;;;;;;5059971;28;20429;-79
2022/02/28 00:50:35;;;;;;;57.87;16.70;;;0.60;97.30;;;;;;5059977;28;20209;-80
2022/02/28 00:53:00;;;;;;;56.77;16.97;;;0.60;97.30;;;;;;5059564;28;20441;-80
2022/02/28 00:55:26;;;;;;;62.60;18.40;;;0.60;97.30;;;;;;5060139;28;20179;-81
2022/02/28 00:57:52;;;;;;;56.37;17.83;;;0.50;97.30;;;;;;5060218;28;20183;-80
2022/02/28 01:00:19;;;;;;;51.97;19.30;;;0.50;97.30;;;;;;5059817;28;20186;-80
2022/02/28 01:02:45;;;;;;;54.23;17.73;;;0.50;97.30;;;;;;5059709;28;20203;-81
2022/02/28 01:05:11;;;;;;;53.10;17.97;;;0.40;97.30;;;;;;5058908;28;20500;-80
2022/02/28 01:07:38;;;;;;;53.03;17.70;;;0.50;97.30;;;;;;5059320;28;20453;-81
2022/02/28 01:10:06;;;;;;;53.20;16.73;;;0.50;97.30;;;;;;5059436;28;20413;-80
2022/02/28 01:12:31;;;;;;;63.20;19.03;;;0.40;97.30;;;;;;5054737;28;20474;-80
2022/02/28 01:14:57;;;;;;;51.10;17.50;;;0.30;97.30;;;;;;5055118;28;20444;-81
2022/02/28 01:17:23;;;;;;;68.17;20.70;;;0.30;97.30;;;;;;5055042;28;20251;-80
2022/02/28 01:19:50;;;;;;;59.53;18.30;;;0.30;97.30;;;;;;5055014;28;20301;-81
2022/02/28 01:22:16;;;;;;;70.67;19.33;;;0.30;97.30;;;;;;5056344;28;20949;-82
2022/02/28 01:24:41;;;;;;;61.70;20.00;;;0.30;97.30;;;;;;5071208;28;20469;-80
2022/02/28 01:27:08;;;;;;;61.50;18.73;;;0.30;97.30;;;;;;5054983;28;20429;-80
2022/02/28 01:29:33;;;;;;;53.27;17.47;;;0.30;97.30;;;;;;5055298;28;20202;-80
2022/02/28 01:31:59;;;;;;;59.57;17.90;;;0.30;97.30;;;;;;5055376;28;20446;-79
2022/02/28 01:34:25;;;;;;;66.40;19.47;;;0.20;97.30;;;;;;5051656;28;20185;-80
2022/02/28 01:36:51;;;;;;;77.67;17.57;;;0.20;97.30;;;;;;5035130;28;20986;-80
2022/02/28 01:39:16;;;;;;;68.67;20.83;;;0.20;97.30;;;;;;5035115;28;20267;-80
2022/02/28 01:41:42;;;;;;;71.77;21.07;;;0.30;97.30;;;;;;5035702;28;20249;-80
2022/02/28 01:44:09;;;;;;;71.07;19.87;;;0.30;97.30;;;;;;5035936;28;20246;-80
2022/02/28 01:46:35;;;;;;;63.83;19.90;;;0.30;97.30;;;;;;5032391;28;20535;-77
2022/02/28 01:49:02;;;;;;;69.67;20.90;;;0.20;97.30;;;;;;5031801;28;21186;-77
2022/02/28 01:51:27;;;;;;;73.00;19.57;;;0.20;97.30;;;;;;5029949;28;20423;-78
2022/02/28 01:53:53;;;;;;;68.50;21.40;;;0.20;97.30;;;;;;5030329;28;20866;-77
2022/02/28 01:56:21;;;;;;;75.20;22.57;;;0.10;97.30;;;;;;5029760;28;20186;-77
2022/02/28 01:58:47;;;;;;;73.77;23.30;;;0.10;97.30;;;;;;5029885;28;20645;-77
2022/02/28 02:01:12;;;;;;;83.63;20.00;;;0.10;97.30;;;;;;5029993;28;20874;-77
2022/02/28 02:03:38;;;;;;;72.43;22.97;;;0.10;97.30;;;;;;5031211;28;20435;-77
2022/02/28 02:06:09;;;;;;;68.73;21.87;;;0.10;97.30;;;;;;5029664;28;20208;-77
2022/02/28 02:08:35;;;;;;;76.43;22.80;;;0.10;97.30;;;;;;5029836;28;20179;-77
2022/02/28 02:11:02;;;;;;;75.27;22.60;;;0.10;97.30;;;;;;5030903;28;20412;-77
2022/02/28 02:13:29;;;;;;;89.17;25.57;;;0.10;97.30;;;;;;5043115;28;20840;-77
2022/02/28 02:15:56;;;;;;;69.63;24.23;;;0.10;97.30;;;;;;5050785;28;20453;-78
2022/02/28 02:18:21;;;;;;;80.23;24.47;;;0.20;97.30;;;;;;5066254;28;20932;-78
2022/02/28 02:20:47;;;;;;;99.87;26.30;;;0.20;97.30;;;;;;5049424;28;20423;-78
2022/02/28 02:23:13;;;;;;;81.33;23.77;;;0.30;97.30;;;;;;5051240;28;20274;-77
2022/02/28 02:25:40;;;;;;;91.37;24.73;;;0.30;97.30;;;;;;5049954;28;20383;-77
2022/02/28 02:28:07;;;;;;;88.63;25.30;;;0.30;97.30;;;;;;5049513;28;20418;-78
2022/02/28 02:30:33;;;;;;;83.60;23.50;;;0.30;97.30;;;;;;5049302;28;20418;-78
2022/02/28 02:32:59;;;;;;;82.60;23.10;;;0.30;97.30;;;;;;5049829;28;20861;-77
2022/02/28 02:35:25;;;;;;;80.37;20.77;;;0.30;97.30;;;;;;5049489;28;20521;-77
2022/02/28 02:37:51;;;;;;;78.63;23.60;;;0.30;97.30;;;;;;5051153;28;20631;-78
2022/02/28 02:40:17;;;;;;;82.37;22.70;;;0.20;97.30;;;;;;5049211;28;20426;-77
2022/02/28 02:42:43;;;;;;;69.33;21.63;;;0.20;97.30;;;;;;5048970;28;20254;-77
2022/02/28 02:45:09;;;;;;;75.27;21.07;;;0.10;97.30;;;;;;5050143;28;20482;-77
2022/02/28 02:47:35;;;;;;;82.20;22.00;;;0.10;97.30;;;;;;5049309;28;20203;-77
2022/02/28 02:50:01;;;;;;;76.73;24.20;;;0.10;97.30;;;;;;5048886;28;20460;-77
2022/02/28 02:52:26;;;;;;;78.30;22.37;;;0.00;97.30;;;;;;5049066;28;20196;-77
2022/02/28 02:54:52;;;;;;;83.83;22.00;;;0.00;97.30;;;;;;5049431;28;20843;-77
2022/02/28 02:57:20;;;;;;;70.60;20.50;;;0.00;97.30;;;;;;5050144;28;20525;-77
2022/02/28 02:59:47;;;;;;;80.17;23.97;;;0.10;97.30;;;;;;5048781;28;20684;-77
2022/02/28 03:02:12;;;;;;;86.23;24.07;;;0.10;97.30;;;;;;5048571;28;20932;-77
2022/02/28 03:04:38;;;;;;;76.37;20.20;;;0.10;97.30;;;;;;5050307;28;20522;-77
2022/02/28 03:07:16;;;;;;;71.20;21.40;;;0.10;97.30;;;;;;5048600;28;20171;-77
2022/02/28 03:09:43;;;;;;;68.30;21.90;;;0.10;97.30;;;;;;5048483;28;20179;-78
2022/02/28 03:12:09;;;;;;;77.17;20.47;;;0.10;97.30;;;;;;5048643;28;20472;-77
2022/02/28 03:14:35;;;;;;;75.07;25.03;;;0.20;97.30;;;;;;5048644;28;20426;-77
2022/02/28 03:17:00;;;;;;;70.63;20.80;;;0.20;97.30;;;;;;5048870;28;20279;-78
2022/02/28 03:19:26;;;;;;;92.40;20.90;;;0.20;97.30;;;;;;5048843;28;20760;-78
2022/02/28 03:21:51;;;;;;;72.27;23.63;;;0.10;97.30;;;;;;5048395;28;20184;-77
2022/02/28 03:24:17;;;;;;;76.57;21.00;;;0.10;97.30;;;;;;5049053;28;20562;-77
2022/02/28 03:26:42;;;;;;;72.33;21.33;;;0.10;97.30;;;;;;5049299;28;20171;-77
2022/02/28 03:29:08;;;;;;;91.83;24.43;;;0.10;97.30;;;;;;5048728;28;20540;-78
2022/02/28 03:31:34;;;;;;;77.43;23.20;;;0.10;97.30;;;;;;5048661;28;20254;-77
2022/02/28 03:33:59;;;;;;;79.47;21.47;;;0.10;97.30;;;;;;5048497;28;20187;-77
2022/02/28 03:36:25;;;;;;;78.00;23.13;;;0.10;97.30;;;;;;5048422;28;20502;-77
2022/02/28 03:38:50;;;;;;;80.47;22.17;;;0.10;97.30;;;;;;5048268;28;20633;-77
2022/02/28 03:41:16;;;;;;;75.83;24.73;;;0.10;97.30;;;;;;5048111;28;20205;-77
2022/02/28 03:43:41;;;;;;;77.27;23.70;;;0.10;97.30;;;;;;5048127;28;20199;-78
2022/02/28 03:46:07;;;;;;;73.63;22.40;;;0.10;97.30;;;;;;5048065;28;20195;-78
2022/02/28 03:48:33;;;;;;;80.83;22.67;;;0.00;97.30;;;;;;5048515;28;20559;-77
2022/02/28 03:50:58;;;;;;;76.63;22.50;;;0.00;97.30;;;;;;5049027;28;20203;-77
2022/02/28 03:53:24;;;;;;;77.67;21.40;;;0.10;97.30;;;;;;5047742;28;20669;-77
2022/02/28 03:55:49;;;;;;;65.60;19.73;;;0.10;97.30;;;;;;5053057;28;20233;-77
2022/02/28 03:58:15;;;;;;;69.40;21.70;;;0.10;97.30;;;;;;5052153;28;20187;-77
2022/02/28 04:00:40;;;;;;;74.00;22.23;;;0.00;97.30;;;;;;5053787;28;20171;-77
2022/02/28 04:03:06;;;;;;;64.67;21.10;;;0.00;97.30;;;;;;5051896;28;20687;-78
2022/02/28 04:05:31;;;;;;;66.60;20.77;;;0.00;97.30;;;;;;5053660;28;20291;-78
2022/02/28 04:07:58;;;;;;;72.17;21.13;;;0.00;97.30;;;;;;5051883;28;20499;-78
2022/02/28 04:10:23;;;;;;;86.17;21.10;;;0.10;97.30;;;;;;5052278;28;20191;-78
2022/02/28 04:12:49;;;;;;;73.30;21.87;;;0.10;97.30;;;;;;5052629;28;20959;-78
2022/02/28 04:15:14;;;;;;;89.27;22.20;;;0.00;97.30;;;;;;5052232;28;20678;-77
2022/02/28 04:17:40;;;;;;;77.07;20.73;;;0.00;97.30;;;;;;5051903;28;20194;-78
2022/02/28 04:20:06;;;;;;;73.30;22.30;;;0.00;97.30;;;;;;5052479;28;20187;-77
2022/02/28 04:22:32;;;;;;;68.73;19.90;;;0.00;97.30;;;;;;5051871;28;20196;-77
2022/02/28 04:24:57;;;;;;;72.03;21.53;;;0.00;97.30;;;;;;5053460;28;20491;-77
2022/02/28 04:27:23;;;;;;;79.87;22.87;;;0.00;97.30;;;;;;5051954;28;20176;-77
2022/02/28 04:29:49;;;;;;;61.70;21.97;;;0.00;97.30;;;;;;5051829;28;20187;-77
2022/02/28 04:32:14;;;;;;;71.50;19.77;;;0.00;97.30;;;;;;5051504;28;20195;-77
2022/02/28 04:34:41;;;;;;;66.40;19.67;;;0.00;97.30;;;;;;5053159;28;20179;-77
2022/02/28 04:37:06;;;;;;;70.60;22.77;;;0.00;97.30;;;;;;5051309;28;20183;-77
2022/02/28 04:39:32;;;;;;;68.57;21.03;;;-0.10;97.30;;;;;;5051571;28;20414;-77
2022/02/28 04:41:58;;;;;;;66.37;19.50;;;-0.10;97.30;;;;;;5051051;28;20437;-77
2022/02/28 04:44:23;;;;;;;69.70;20.00;;;-0.10;97.30;;;;;;5052849;28;20207;-77
2022/02/28 04:46:49;;;;;;;65.77;18.17;;;-0.10;97.30;;;;;;5051703;28;20206;-76
2022/02/28 04:49:15;;;;;;;72.63;18.47;;;0.00;97.30;;;;;;5053056;28;20190;-77
2022/02/28 04:51:40;;;;;;;63.03;19.10;;;0.00;97.30;;;;;;5051191;28;20260;-77
2022/02/28 04:54:06;;;;;;;75.47;22.00;;;0.00;97.30;;;;;;5051140;28;20209;-77
2022/02/28 04:56:31;;;;;;;68.13;19.03;;;0.00;97.30;;;;;;5051247;28;20223;-77
2022/02/28 04:58:57;;;;;;;70.57;18.80;;;-0.10;97.30;;;;;;5051191;28;20190;-77
2022/02/28 05:01:22;;;;;;;69.33;19.07;;;-0.10;97.30;;;;;;5051343;28;20829;-77
2022/02/28 05:03:48;;;;;;;62.53;18.07;;;-0.10;97.30;;;;;;5051114;28;20575;-77
2022/02/28 05:06:13;;;;;;;63.87;18.37;;;-0.20;97.30;;;;;;5050522;28;20202;-77
2022/02/28 05:08:39;;;;;;;58.60;17.00;;;-0.20;97.30;;;;;;5051431;28;20638;-78
2022/02/28 05:11:05;;;;;;;69.53;17.60;;;-0.10;97.30;;;;;;5051875;28;20168;-77
2022/02/28 05:13:31;;;;;;;71.50;21.80;;;-0.10;97.30;;;;;;5051064;28;20230;-77
2022/02/28 05:15:57;;;;;;;59.43;18.80;;;-0.20;97.30;;;;;;5052417;28;20164;-77
2022/02/28 05:18:23;;;;;;;67.87;19.77;;;-0.10;97.30;;;;;;5050496;28;20850;-77
2022/02/28 05:20:48;;;;;;;67.30;20.47;;;-0.10;97.30;;;;;;5050884;28;20419;-77
2022/02/28 05:23:14;;;;;;;62.97;18.57;;;-0.10;97.30;;;;;;5050656;28;20547;-77
2022/02/28 05:25:39;;;;;;;69.00;18.87;;;-0.10;97.30;;;;;;5050821;28;20212;-77
2022/02/28 05:28:05;;;;;;;62.73;18.33;;;0.00;97.30;;;;;;5050253;28;20253;-77
2022/02/28 05:30:31;;;;;;;61.20;22.63;;;0.00;97.30;;;;;;5050479;28;20714;-76
2022/02/28 05:32:56;;;;;;;78.40;19.40;;;0.00;97.30;;;;;;5050375;28;20719;-77
2022/02/28 05:35:22;;;;;;;71.47;19.57;;;0.00;97.30;;;;;;5050228;28;20262;-77
2022/02/28 05:37:47;;;;;;;57.80;18.20;;;0.00;97.30;;;;;;5050310;28;20250;-77
2022/02/28 05:40:15;;;;;;;72.33;20.27;;;0.00;97.30;;;;;;5051939;28;20233;-77
2022/02/28 05:42:40;;;;;;;61.60;18.27;;;0.00;97.30;;;;;;5049800;28;20369;-77
2022/02/28 05:45:07;;;;;;;62.17;19.33;;;0.00;97.30;;;;;;5050072;28;20455;-77
2022/02/28 05:47:33;;;;;;;60.17;19.00;;;0.00;97.30;;;;;;5049843;28;20207;-78
2022/02/28 05:49:58;;;;;;;75.00;20.80;;;0.10;97.30;;;;;;5049901;28;20454;-77
2022/02/28 05:52:24;;;;;;;63.10;19.30;;;0.00;97.30;;;;;;5050126;28;20238;-77
2022/02/28 05:54:50;;;;;;;63.27;19.73;;;0.10;97.30;;;;;;5050105;28;20258;-77
2022/02/28 05:57:15;;;;;;;62.07;20.53;;;0.00;97.30;;;;;;5050407;28;20179;-77
2022/02/28 05:59:41;;;;;;;63.50;19.23;;;0.10;97.30;;;;;;5051209;28;20182;-78
2022/02/28 06:02:07;;;;;;;70.60;21.53;;;0.10;97.30;;;;;;5050144;28;20203;-77
2022/02/28 06:04:32;;;;;;;63.17;19.27;;;0.10;97.30;;;;;;5049659;28;20175;-77
2022/02/28 06:06:58;;;;;;;63.23;19.90;;;0.00;97.30;;;;;;5049930;28;20190;-77
2022/02/28 06:09:23;;;;;;;64.60;18.80;;;0.00;97.30;;;;;;5049512;28;20180;-77
2022/02/28 06:11:49;;;;;;;54.60;18.53;;;0.10;97.30;;;;;;5049210;28;20171;-77
2022/02/28 06:14:15;;;;;;;52.30;16.40;;;0.00;97.30;;;;;;5049558;28;20688;-77
2022/02/28 06:16:41;;;;;;;74.60;19.27;;;0.00;97.30;;;;;;5049630;28;20183;-77
2022/02/28 06:19:07;;;;;;;58.67;17.83;;;0.00;97.30;;;;;;5048520;28;20791;-78
2022/02/28 06:21:32;;;;;;;62.33;17.47;;;0.00;97.30;;;;;;5049401;28;20184;-77
2022/02/28 06:23:58;;;;;;;59.83;19.13;;;0.00;97.30;;;;;;5049142;28;20574;-77
2022/02/28 06:26:23;;;;;;;59.67;18.53;;;0.00;97.30;;;;;;5049443;28;20215;-78
2022/02/28 06:28:49;;;;;;;62.27;18.43;;;0.00;97.30;;;;;;5050439;28;20537;-78
2022/02/28 06:31:15;;;;;;;57.07;16.87;;;0.10;97.30;;;;;;5049410;28;20539;-77
2022/02/28 06:33:40;;;;;;;71.43;21.10;;;0.10;97.30;;;;;;5048825;28;20198;-78
2022/02/28 06:36:06;;;;;;;62.07;18.97;;;0.10;97.30;;;;;;5050793;28;20282;-77
2022/02/28 06:38:32;;;;;;;65.63;18.93;;;0.10;97.30;;;;;;5049174;28;20183;-77
2022/02/28 06:40:57;;;;;;;69.43;18.73;;;0.20;97.30;;;;;;5048851;28;20207;-77
2022/02/28 06:43:24;;;;;;;71.20;19.07;;;0.20;97.30;;;;;;5049138;28;20747;-77
2022/02/28 06:45:55;;;;;;;64.80;20.30;;;0.20;97.30;;;;;;5049125;28;20214;-78
2022/02/28 06:48:20;;;;;;;72.60;21.10;;;0.20;97.30;;;;;;5048898;28;20414;-77
2022/02/28 06:50:47;;;;;;;68.67;22.20;;;0.20;97.30;;;;;;5048846;28;21014;-78
2022/02/28 06:53:18;;;;;;;64.57;19.03;;;0.20;97.30;;;;;;5049134;28;20684;-77
2022/02/28 06:55:45;;;;;;;69.70;19.60;;;0.20;97.30;;;;;;5049418;28;20441;-77
2022/02/28 06:58:11;;;;;;;67.60;18.73;;;0.20;97.30;;;;;;5049089;28;20424;-78
2022/02/28 07:00:37;;;;;;;60.80;18.67;;;0.20;97.30;;;;;;5050252;28;20409;-78
2022/02/28 07:03:03;;;;;;;50.63;16.87;;;0.20;97.30;;;;;;5048990;28;20290;-78
2022/02/28 07:05:29;;;;;;;61.17;16.97;;;0.20;97.30;;;;;;5048604;28;20544;-77
2022/02/28 07:07:55;;;;;;;56.00;18.00;;;0.20;97.30;;;;;;5048910;28;20415;-77
2022/02/28 07:10:22;;;;;;;55.77;17.90;;;0.20;97.30;;;;;;5048775;28;20513;-78
2022/02/28 07:12:48;;;;;;;54.00;17.80;;;0.20;97.30;;;;;;5048603;28;20470;-77
2022/02/28 07:15:14;;;;;;;49.13;16.63;;;0.20;97.30;;;;;;5064918;28;20787;-77
2022/02/28 07:17:40;;;;;;;57.37;18.53;;;0.20;97.30;;;;;;5048602;28;20445;-78
2022/02/28 07:20:06;;;;;;;60.40;18.50;;;0.20;97.30;;;;;;5048429;28;20175;-77
2022/02/28 07:22:32;;;;;;;49.23;15.50;;;0.30;97.30;;;;;;5048274;28;20438;-77
2022/02/28 07:24:57;;;;;;;40.53;14.40;;;0.30;97.30;;;;;;5048567;28;20489;-77
2022/02/28 07:27:23;;;;;;;41.70;13.80;;;0.30;97.30;;;;;;5048368;28;20188;-78
2022/02/28 07:29:48;;;;;;;51.27;17.27;;;0.30;97.30;;;;;;5051914;28;20317;-77
2022/02/28 07:32:14;;;;;;;48.33;16.20;;;0.30;97.30;;;;;;5056286;28;20192;-77
2022/02/28 07:34:40;;;;;;;58.63;15.90;;;0.40;97.30;;;;;;5054976;28;20213;-77
2022/02/28 07:37:07;;;;;;;49.07;17.00;;;0.40;97.30;;;;;;5055105;28;20175;-78
2022/02/28 07:39:33;;;;;;;49.90;15.87;;;0.40;97.30;;;;;;5055767;28;20176;-78
2022/02/28 07:42:00;;;;;;;41.63;13.27;;;0.40;97.30;;;;;;5072175;28;20420;-77
2022/02/28 07:44:27;;;;;;;44.90;14.90;;;0.50;97.30;;;;;;5055164;28;20418;-77
2022/02/28 07:46:53;;;;;;;51.40;14.27;;;0.50;97.30;;;;;;5055381;28;20496;-77
2022/02/28 07:49:19;;;;;;;36.90;13.53;;;0.50;97.30;;;;;;5056743;28;20471;-78
2022/02/28 07:51:44;;;;;;;46.83;14.57;;;0.50;97.30;;;;;;5056547;28;20396;-77
2022/02/28 07:54:10;;;;;;;38.97;14.57;;;0.40;97.30;;;;;;5054912;28;20218;-77
2022/02/28 07:56:36;;;;;;;39.63;14.47;;;0.40;97.30;;;;;;5056414;28;20567;-78
2022/02/28 07:59:02;;;;;;;32.77;12.43;;;0.40;97.30;;;;;;5054936;28;20179;-77
2022/02/28 08:01:27;;;;;;;40.80;13.57;;;0.40;97.30;;;;;;5056357;28;20180;-77
2022/02/28 08:03:53;;;;;;;38.50;13.30;;;0.40;97.30;;;;;;5054752;28;20213;-78
2022/02/28 08:06:18;;;;;;;38.47;14.13;;;0.50;97.30;;;;;;5054713;28;20203;-78
2022/02/28 08:08:44;;;;;;;42.30;13.67;;;0.50;97.30;;;;;;5054963;28;20206;-77
2022/02/28 08:11:09;;;;;;;35.73;12.50;;;0.50;97.30;;;;;;5054765;28;20180;-78
2022/02/28 08:13:35;;;;;;;33.70;12.83;;;0.50;97.30;;;;;;5043753;28;20235;-78
2022/02/28 08:16:01;;;;;;;40.43;13.03;;;0.60;97.30;;;;;;5051639;28;20661;-77
2022/02/28 08:18:27;;;;;;;46.33;15.30;;;0.60;97.30;;;;;;5036078;28;20175;-77
2022/02/28 08:20:53;;;;;;;43.33;15.00;;;0.70;97.30;;;;;;5051307;28;20542;-78
2022/02/28 08:23:19;;;;;;;44.67;14.13;;;0.70;97.30;;;;;;5051399;28;20529;-78
2022/02/28 08:25:45;;;;;;;35.10;14.07;;;0.80;97.30;;;;;;5051204;28;20485;-78
2022/02/28 08:28:12;;;;;;;41.70;13.83;;;0.80;97.30;;;;;;5051597;28;20183;-78
2022/02/28 08:30:38;;;;;;;43.13;13.27;;;0.90;97.30;;;;;;5051580;28;20514;-78
2022/02/28 08:33:04;;;;;;;39.63;13.40;;;0.90;97.30;;;;;;5052282;28;20684;-77
2022/02/28 08:35:30;;;;;;;47.17;14.80;;;0.90;97.30;;;;;;5051895;28;20422;-78
2022/02/28 08:37:56;;;;;;;38.90;13.70;;;1.00;97.30;;;;;;5051452;28;20422;-77
2022/02/28 08:40:22;;;;;;;48.93;14.67;;;1.00;97.30;;;;;;5050370;28;20184;-77
2022/02/28 08:42:48;;;;;;;46.90;15.00;;;1.00;97.30;;;;;;5032092;28;20866;-77
2022/02/28 08:45:14;;;;;;;42.97;15.27;;;1.00;97.30;;;;;;5047766;28;20475;-77
2022/02/28 08:47:40;;;;;;;42.93;13.60;;;1.10;97.30;;;;;;5032740;28;20247;-78
2022/02/28 08:50:07;;;;;;;43.77;14.17;;;1.20;97.30;;;;;;5048014;28;20580;-78
2022/02/28 08:52:33;;;;;;;39.93;13.33;;;1.30;97.30;;;;;;5047685;28;20472;-78
2022/02/28 08:55:03;;;;;;;33.57;13.40;;;1.30;97.30;;;;;;5047622;28;20506;-77
2022/02/28 08:57:29;;;;;;;28.40;11.90;;;1.30;97.30;;;;;;5047937;28;20185;-78
2022/02/28 08:59:55;;;;;;;35.67;11.17;;;1.40;97.30;;;;;;5047795;28;21242;-77
2022/02/28 09:02:20;;;;;;;36.83;12.27;;;1.40;97.30;;;;;;5047184;28;20670;-78
2022/02/28 09:04:46;;;;;;;31.27;11.80;;;1.50;97.30;;;;;;5047306;28;20576;-78
2022/02/28 09:07:12;;;;;;;30.13;12.20;;;1.50;97.30;;;;;;5047702;28;20275;-78
2022/02/28 09:09:38;;;;;;;28.13;11.53;;;1.60;97.30;;;;;;5047640;28;20181;-78
2022/02/28 09:12:04;;;;;;;42.20;14.10;;;1.80;97.30;;;;;;5049334;28;20192;-78
2022/02/28 09:14:29;;;;;;;35.97;13.37;;;1.80;97.30;;;;;;5067268;28;20410;-78
2022/02/28 09:16:55;;;;;;;37.80;13.03;;;1.90;97.30;;;;;;5067115;28;20493;-78
2022/02/28 09:19:20;;;;;;;31.27;12.67;;;1.90;97.30;;;;;;5067409;28;20183;-78
2022/02/28 09:21:46;;;;;;;36.70;12.97;;;1.90;97.30;;;;;;5051930;28;20182;-78
2022/02/28 09:24:12;;;;;;;35.97;12.50;;;2.00;97.30;;;;;;5067594;28;20183;-77
2022/02/28 09:26:38;;;;;;;35.00;12.53;;;2.00;97.30;;;;;;5067688;28;20510;-78
2022/02/28 09:29:05;;;;;;;39.20;13.70;;;2.10;97.30;;;;;;5052498;28;20597;-78
2022/02/28 09:31:33;;;;;;;40.53;13.00;;;2.20;97.30;;;;;;5067109;28;20176;-78
2022/02/28 09:33:59;;;;;;;32.37;13.00;;;2.20;97.30;;;;;;5067407;28;20536;-78
2022/02/28 09:36:24;;;;;;;36.23;12.67;;;2.20;97.30;;;;;;5050504;28;20513;-78
2022/02/28 09:38:50;;;;;;;31.20;13.03;;;2.20;97.30;;;;;;5050290;28;20584;-78
2022/02/28 09:41:17;;;;;;;32.17;12.60;;;2.30;97.30;;;;;;5050391;28;20191;-78
2022/02/28 09:43:44;;;;;;;38.87;13.33;;;2.40;97.30;;;;;;5051960;28;20577;-78
2022/02/28 09:46:10;;;;;;;38.40;13.50;;;2.40;97.30;;;;;;5049865;28;20486;-78
2022/02/28 09:48:37;;;;;;;37.30;14.20;;;2.60;97.30;;;;;;5050045;28;20410;-78
2022/02/28 09:51:02;;;;;;;39.10;14.87;;;2.70;97.30;;;;;;5050143;28;20426;-78
2022/02/28 09:53:28;;;;;;;30.13;14.13;;;2.70;97.30;;;;;;5049977;28;20496;-78
2022/02/28 09:55:54;;;;;;;40.83;13.10;;;2.70;97.30;;;;;;5049466;28;20232;-78
2022/02/28 09:58:27;;;;;;;38.57;15.07;;;2.60;97.30;;;;;;5049658;28;20310;-78
2022/02/28 10:00:53;;;;;;;36.47;14.23;;;2.60;97.30;;;;;;5050043;28;20202;-77
2022/02/28 10:03:20;;;;;;;34.20;14.33;;;2.50;97.30;;;;;;5049475;28;20766;-78
2022/02/28 10:05:46;;;;;;;41.13;15.77;;;2.60;97.30;;;;;;5049790;28;20516;-77
2022/02/28 10:08:15;;;;;;;46.53;14.53;;;2.80;97.30;;;;;;5049528;28;20418;-78
2022/02/28 10:10:44;;;;;;;35.50;13.97;;;3.00;97.30;;;;;;5049541;28;20274;-78
2022/02/28 10:13:10;;;;;;;43.03;15.87;;;3.10;97.30;;;;;;5049544;28;20504;-78
2022/02/28 10:15:35;;;;;;;43.40;14.90;;;3.30;97.30;;;;;;5049730;28;20504;-78
2022/02/28 10:18:07;;;;;;;33.63;15.20;;;3.50;97.30;;;;;;5049477;28;20195;-78
2022/02/28 10:20:36;;;;;;;49.33;16.90;;;3.80;97.30;;;;;;5049104;28;20211;-78
2022/02/28 10:23:09;;;;;;;36.83;15.87;;;3.90;97.30;;;;;;5049159;28;20529;-78
2022/02/28 10:25:38;;;;;;;36.73;14.03;;;4.10;97.30;;;;;;5048939;28;20461;-78
2022/02/28 10:28:24;;;;;;;36.67;13.83;;;4.20;97.30;;;;;;5049170;28;20414;-78
2022/02/28 10:30:58;;;;;;;33.73;12.77;;;4.20;97.30;;;;;;5048899;28;20982;-78
2022/02/28 10:33:32;;;;;;;38.00;13.20;;;4.30;97.30;;;;;;5048953;28;20453;-78
2022/02/28 10:36:13;;;;;;;38.80;15.27;;;4.50;97.30;;;;;;5032159;28;20567;-78
2022/02/28 10:38:45;;;;;;;34.90;13.43;;;4.70;97.30;;;;;;5029442;28;20513;-77
2022/02/28 10:41:18;;;;;;;31.23;12.67;;;4.80;97.30;;;;;;5029200;28;21335;-79
2022/02/28 10:43:45;;;;;;;32.97;12.60;;;4.90;97.30;;;;;;5029100;28;20439;-79
2022/02/28 10:46:20;;;;;;;36.43;12.50;;;5.10;97.30;;;;;;5030782;28;20837;-78
2022/02/28 10:48:58;;;;;;;31.03;12.70;;;5.30;97.30;;;;;;5048923;28;20421;-79
2022/02/28 10:51:24;;;;;;;31.37;12.57;;;5.40;96.70;;;;;;5049386;28;20448;-79
2022/02/28 10:54:10;;;;;;;35.80;13.37;;;5.50;96.10;;;;;;5049386;28;20434;-79
2022/02/28 10:56:51;;;;;;;26.87;11.77;;;5.40;95.60;;;;;;5049064;28;20477;-79
2022/02/28 10:59:18;;;;;;;37.00;13.07;;;5.50;95.40;;;;;;5049060;28;20426;-79
2022/02/28 11:01:44;;;;;;;27.63;11.63;;;5.60;95.00;;;;;;5050657;28;20705;-79
2022/02/28 11:04:10;;;;;;;32.57;13.47;;;5.70;94.50;;;;;;5049002;28;20442;-79
2022/02/28 11:06:38;;;;;;;30.97;11.73;;;5.80;94.60;;;;;;5049937;28;20484;-79
2022/02/28 11:09:04;;;;;;;30.27;12.17;;;5.80;93.80;;;;;;5049716;28;20411;-78
2022/02/28 11:11:31;;;;;;;37.37;13.63;;;5.90;94.10;;;;;;5050046;28;20410;-79
2022/02/28 11:13:57;;;;;;;31.33;11.40;;;5.90;94.40;;;;;;5049219;28;20477;-79
2022/02/28 11:16:25;;;;;;;31.70;13.70;;;5.90;94.50;;;;;;5050007;28;20449;-79
2022/02/28 11:18:50;;;;;;;31.87;12.37;;;6.10;94.60;;;;;;5050236;28;20414;-79
2022/02/28 11:21:16;;;;;;;30.50;12.47;;;6.20;94.20;;;;;;5049682;28;20783;-79
2022/02/28 11:23:46;;;;;;;31.47;13.07;;;6.30;92.80;;;;;;5049023;28;20235;-79
2022/02/28 11:26:13;;;;;;;33.60;13.23;;;6.40;93.30;;;;;;5049130;28;20215;-79
2022/02/28 11:28:39;;;;;;;26.37;12.97;;;6.50;93.20;;;;;;5048968;28;20418;-79
2022/02/28 11:31:07;;;;;;;34.53;12.63;;;6.70;93.70;;;;;;5046498;28;20790;-77
2022/02/28 11:33:33;;;;;;;37.93;13.57;;;6.90;93.00;;;;;;5039552;28;20295;-79
2022/02/28 11:35:59;;;;;;;33.90;14.03;;;7.00;92.30;;;;;;5063110;28;20508;-79
2022/02/28 11:38:25;;;;;;;28.90;11.77;;;7.10;91.70;;;;;;5065688;28;20530;-79
2022/02/28 11:40:57;;;;;;;25.10;11.10;;;7.10;91.10;;;;;;5048984;28;20410;-79
2022/02/28 11:43:26;;;;;;;33.90;12.10;;;7.00;90.30;;;;;;5048662;28;20438;-79
2022/02/28 11:45:52;;;;;;;25.60;13.43;;;6.90;90.70;;;;;;5048735;28;20454;-79
2022/02/28 11:48:18;;;;;;;31.30;12.10;;;6.90;91.60;;;;;;5049805;28;20513;-79
2022/02/28 11:51:06;;;;;;;34.00;11.40;;;6.80;90.60;;;;;;5048695;28;20827;-79
2022/02/28 11:53:52;;;;;;;30.20;11.67;;;6.70;90.50;;;;;;5050508;28;20195;-79
2022/02/28 11:56:18;;;;;;;33.50;12.93;;;6.80;90.40;;;;;;5049307;28;20468;-79
2022/02/28 11:58:54;;;;;;;34.23;11.70;;;6.80;90.10;;;;;;5049230;28;21099;-79
2022/02/28 12:01:32;;;;;;;23.47;9.90;;;6.90;90.60;;;;;;5048723;28;20557;-78
2022/02/28 12:04:15;;;;;;;28.47;10.90;;;7.00;90.30;;;;;;5048464;28;20442;-79
2022/02/28 12:06:46;;;;;;;26.17;11.60;;;7.30;90.30;;;;;;5035385;28;20463;-80
2022/02/28 12:12:22;;;;;;;28.17;11.53;;;7.30;89.10;;;;;;5030950;28;20443;-79
2022/02/28 12:14:57;;;;;;;23.07;10.67;;;7.50;90.40;;;;;;5047899;28;20487;-79
2022/02/28 12:17:32;;;;;;;25.63;10.70;;;7.90;89.30;;;;;;5052219;28;20419;-79
2022/02/28 12:20:16;;;;;;;20.63;9.00;;;8.00;88.60;;;;;;5052529;28;20758;-79
2022/02/28 12:23:08;;;;;;;26.57;10.23;;;8.10;87.10;;;;;;5051530;28;20437;-79
2022/02/28 12:25:57;;;;;;;27.70;10.10;;;8.20;87.30;;;;;;5068903;28;20466;-79
2022/02/28 12:28:27;;;;;;;19.00;8.70;;;8.40;87.60;;;;;;5069136;28;20418;-79
2022/02/28 12:31:02;;;;;;;22.30;10.30;;;8.60;86.20;;;;;;5052491;28;20422;-80
2022/02/28 12:33:34;;;;;;;23.63;10.10;;;8.60;85.30;;;;;;5032596;28;20447;-79
2022/02/28 12:35:59;;;;;;;22.43;9.10;;;8.60;85.00;;;;;;5033101;28;20430;-80
2022/02/28 12:38:34;;;;;;;19.87;10.10;;;8.50;84.30;;;;;;5032474;28;20418;-79